sensor_id;sensor_type;location;lat;lon;timestamp;pressure;altitude;pressure_sealevel;temperature;humidity
74561;BME280;62979;55.720;37.606;2023-09-19T00:00:25;100259.91;;;16.00;63.91
74561;BME280;62979;55.720;37.606;2023-09-19T00:02:53;100274.78;;;16.01;63.61
74561;BME280;62979;55.720;37.606;2023-09-19T00:05:24;100276.63;;;15.99;63.64
74561;BME280;62979;55.720;37.606;2023-09-19T00:07:54;100269.69;;;15.96;63.42
74561;BME280;62979;55.720;37.606;2023-09-19T00:10:24;100267.16;;;15.93;63.26
74561;BME280;62979;55.720;37.606;2023-09-19T00:12:52;100271.63;;;15.91;62.92
74561;BME280;62979;55.720;37.606;2023-09-19T00:15:21;100261.66;;;15.76;63.00
74561;BME280;62979;55.720;37.606;2023-09-19T00:17:49;100255.69;;;15.71;62.69
74561;BME280;62979;55.720;37.606;2023-09-19T00:20:18;100264.13;;;15.80;62.60
74561;BME280;62979;55.720;37.606;2023-09-19T00:22:48;100265.00;;;15.81;61.82
74561;BME280;62979;55.720;37.606;2023-09-19T00:25:16;100269.28;;;15.83;61.18
74561;BME280;62979;55.720;37.606;2023-09-19T00:27:43;100258.94;;;15.77;60.64
74561;BME280;62979;55.720;37.606;2023-09-19T00:30:12;100257.25;;;15.76;60.89
74561;BME280;62979;55.720;37.606;2023-09-19T00:32:46;100266.81;;;15.79;60.82
74561;BME280;62979;55.720;37.606;2023-09-19T00:35:14;100269.81;;;15.68;60.97
74561;BME280;62979;55.720;37.606;2023-09-19T00:37:42;100277.03;;;15.63;61.39
74561;BME280;62979;55.720;37.606;2023-09-19T00:40:10;100272.78;;;15.59;61.01
74561;BME280;62979;55.720;37.606;2023-09-19T00:42:41;100270.97;;;15.61;60.91
74561;BME280;62979;55.720;37.606;2023-09-19T00:45:09;100273.63;;;15.59;60.66
74561;BME280;62979;55.720;37.606;2023-09-19T00:47:38;100271.81;;;15.61;60.56
74561;BME280;62979;55.720;37.606;2023-09-19T00:50:06;100276.94;;;15.66;60.08
74561;BME280;62979;55.720;37.606;2023-09-19T00:52:36;100280.38;;;15.68;60.22
74561;BME280;62979;55.720;37.606;2023-09-19T00:55:05;100281.13;;;15.72;60.17
74561;BME280;62979;55.720;37.606;2023-09-19T00:57:36;100275.06;;;15.70;59.95
74561;BME280;62979;55.720;37.606;2023-09-19T01:00:06;100264.63;;;15.65;59.83
74561;BME280;62979;55.720;37.606;2023-09-19T01:02:37;100273.47;;;15.64;59.95
74561;BME280;62979;55.720;37.606;2023-09-19T01:05:05;100272.66;;;15.62;59.91
74561;BME280;62979;55.720;37.606;2023-09-19T01:07:33;100265.78;;;15.58;60.44
74561;BME280;62979;55.720;37.606;2023-09-19T01:10:02;100261.31;;;15.60;60.05
74561;BME280;62979;55.720;37.606;2023-09-19T01:12:45;100266.66;;;15.58;59.90
74561;BME280;62979;55.720;37.606;2023-09-19T01:15:25;100256.16;;;15.57;59.93
74561;BME280;62979;55.720;37.606;2023-09-19T01:18:03;100267.44;;;15.60;59.85
74561;BME280;62979;55.720;37.606;2023-09-19T01:20:45;100259.66;;;15.57;59.63
74561;BME280;62979;55.720;37.606;2023-09-19T01:23:27;100262.41;;;15.54;59.71
74561;BME280;62979;55.720;37.606;2023-09-19T01:26:12;100270.28;;;15.56;59.91
74561;BME280;62979;55.720;37.606;2023-09-19T01:29:00;100271.03;;;15.58;59.86
74561;BME280;62979;55.720;37.606;2023-09-19T01:31:42;100254.53;;;15.53;59.60
74561;BME280;62979;55.720;37.606;2023-09-19T01:34:11;100264.06;;;15.57;59.49
74561;BME280;62979;55.720;37.606;2023-09-19T01:36:38;100263.25;;;15.55;59.54
74561;BME280;62979;55.720;37.606;2023-09-19T01:39:06;100252.72;;;15.55;59.70
74561;BME280;62979;55.720;37.606;2023-09-19T01:41:47;100252.66;;;15.56;59.27
74561;BME280;62979;55.720;37.606;2023-09-19T01:44:29;100260.47;;;15.59;59.12
74561;BME280;62979;55.720;37.606;2023-09-19T01:47:13;100261.31;;;15.60;59.17
74561;BME280;62979;55.720;37.606;2023-09-19T01:49:55;100257.78;;;15.61;59.13
74561;BME280;62979;55.720;37.606;2023-09-19T01:52:30;100240.34;;;15.57;59.27
74561;BME280;62979;55.720;37.606;2023-09-19T01:55:06;100243.78;;;15.59;59.01
74561;BME280;62979;55.720;37.606;2023-09-19T01:57:42;100245.72;;;15.54;59.21
74561;BME280;62979;55.720;37.606;2023-09-19T02:00:18;100243.75;;;15.35;59.52
74561;BME280;62979;55.720;37.606;2023-09-19T02:02:50;100238.44;;;15.37;59.63
74561;BME280;62979;55.720;37.606;2023-09-19T02:05:25;100235.63;;;15.41;59.70
74561;BME280;62979;55.720;37.606;2023-09-19T02:07:53;100227.19;;;15.32;59.65
74561;BME280;62979;55.720;37.606;2023-09-19T02:10:20;100228.31;;;15.25;59.72
74561;BME280;62979;55.720;37.606;2023-09-19T02:12:49;100221.66;;;15.14;60.20
74561;BME280;62979;55.720;37.606;2023-09-19T02:15:17;100233.16;;;15.12;60.27
74561;BME280;62979;55.720;37.606;2023-09-19T02:17:44;100229.16;;;15.00;60.52
74561;BME280;62979;55.720;37.606;2023-09-19T02:20:13;100227.50;;;14.97;60.79
74561;BME280;62979;55.720;37.606;2023-09-19T02:22:42;100214.53;;;14.91;60.59
74561;BME280;62979;55.720;37.606;2023-09-19T02:25:09;100209.78;;;15.03;60.50
74561;BME280;62979;55.720;37.606;2023-09-19T02:27:39;100214.06;;;15.05;60.37
74561;BME280;62979;55.720;37.606;2023-09-19T02:30:07;100219.59;;;14.97;60.55
74561;BME280;62979;55.720;37.606;2023-09-19T02:32:34;100218.94;;;14.91;60.62
74561;BME280;62979;55.720;37.606;2023-09-19T02:35:06;100223.56;;;14.84;60.88
74561;BME280;62979;55.720;37.606;2023-09-19T02:37:37;100218.50;;;14.78;61.01
74561;BME280;62979;55.720;37.606;2023-09-19T02:40:05;100218.69;;;14.72;61.27
74561;BME280;62979;55.720;37.606;2023-09-19T02:42:44;100221.91;;;14.80;61.25
74561;BME280;62979;55.720;37.606;2023-09-19T02:45:15;100214.34;;;14.71;61.01
74561;BME280;62979;55.720;37.606;2023-09-19T02:47:43;100223.44;;;14.87;60.85
74561;BME280;62979;55.720;37.606;2023-09-19T02:50:11;100218.16;;;14.87;60.61
74561;BME280;62979;55.720;37.606;2023-09-19T02:52:41;100221.72;;;14.86;60.70
74561;BME280;62979;55.720;37.606;2023-09-19T02:55:09;100214.84;;;14.82;60.70
74561;BME280;62979;55.720;37.606;2023-09-19T02:57:36;100210.53;;;14.80;60.51
74561;BME280;62979;55.720;37.606;2023-09-19T03:00:07;100206.47;;;14.71;60.73
74561;BME280;62979;55.720;37.606;2023-09-19T03:02:35;100206.38;;;14.72;60.78
74561;BME280;62979;55.720;37.606;2023-09-19T03:05:04;100215.94;;;14.75;60.88
74561;BME280;62979;55.720;37.606;2023-09-19T03:07:32;100224.03;;;14.70;60.90
74561;BME280;62979;55.720;37.606;2023-09-19T03:10:01;100219.53;;;14.72;60.95
74561;BME280;62979;55.720;37.606;2023-09-19T03:12:28;100225.69;;;14.73;61.00
74561;BME280;62979;55.720;37.606;2023-09-19T03:14:55;100230.97;;;14.73;61.01
74561;BME280;62979;55.720;37.606;2023-09-19T03:17:22;100222.19;;;14.72;61.11
74561;BME280;62979;55.720;37.606;2023-09-19T03:19:49;100213.25;;;14.78;60.84
74561;BME280;62979;55.720;37.606;2023-09-19T03:22:16;100218.28;;;14.84;60.96
74561;BME280;62979;55.720;37.606;2023-09-19T03:24:43;100219.91;;;14.88;60.82
74561;BME280;62979;55.720;37.606;2023-09-19T03:27:12;100219.69;;;14.94;60.58
74561;BME280;62979;55.720;37.606;2023-09-19T03:29:41;100225.03;;;14.93;60.71
74561;BME280;62979;55.720;37.606;2023-09-19T03:32:08;100227.66;;;14.93;60.64
74561;BME280;62979;55.720;37.606;2023-09-19T03:34:37;100225.75;;;14.96;60.96
74561;BME280;62979;55.720;37.606;2023-09-19T03:37:05;100214.34;;;14.97;60.79
74561;BME280;62979;55.720;37.606;2023-09-19T03:39:33;100216.84;;;15.01;60.55
74561;BME280;62979;55.720;37.606;2023-09-19T03:42:00;100216.84;;;15.01;60.68
74561;BME280;62979;55.720;37.606;2023-09-19T03:44:29;100225.88;;;14.93;61.23
74561;BME280;62979;55.720;37.606;2023-09-19T03:46:56;100225.06;;;14.91;60.99
74561;BME280;62979;55.720;37.606;2023-09-19T03:49:23;100214.56;;;14.90;61.05
74561;BME280;62979;55.720;37.606;2023-09-19T03:51:50;100212.91;;;14.87;61.09
74561;BME280;62979;55.720;37.606;2023-09-19T03:54:17;100213.69;;;14.91;60.95
74561;BME280;62979;55.720;37.606;2023-09-19T03:56:44;100221.53;;;14.92;61.10
74561;BME280;62979;55.720;37.606;2023-09-19T03:59:11;100218.91;;;14.92;61.12
74561;BME280;62979;55.720;37.606;2023-09-19T04:01:40;100223.03;;;14.99;61.18
74561;BME280;62979;55.720;37.606;2023-09-19T04:04:08;100210.66;;;15.02;60.86
74561;BME280;62979;55.720;37.606;2023-09-19T04:06:35;100217.41;;;15.10;60.76
74561;BME280;62979;55.720;37.606;2023-09-19T04:09:02;100208.66;;;15.10;60.90
74561;BME280;62979;55.720;37.606;2023-09-19T04:11:29;100208.50;;;15.14;60.91
74561;BME280;62979;55.720;37.606;2023-09-19T04:13:56;100214.00;;;15.07;61.10
74561;BME280;62979;55.720;37.606;2023-09-19T04:16:23;100224.75;;;15.01;61.41
74561;BME280;62979;55.720;37.606;2023-09-19T04:18:53;100221.13;;;15.05;61.89
74561;BME280;62979;55.720;37.606;2023-09-19T04:21:20;100195.31;;;15.14;61.63
74561;BME280;62979;55.720;37.606;2023-09-19T04:23:47;100203.56;;;15.29;61.13
74561;BME280;62979;55.720;37.606;2023-09-19T04:26:14;100203.34;;;15.35;60.72
74561;BME280;62979;55.720;37.606;2023-09-19T04:28:42;100185.75;;;15.35;61.20
74561;BME280;62979;55.720;37.606;2023-09-19T04:31:11;100194.53;;;15.36;61.05
74561;BME280;62979;55.720;37.606;2023-09-19T04:33:39;100202.50;;;15.34;61.01
74561;BME280;62979;55.720;37.606;2023-09-19T04:36:09;100182.16;;;15.38;60.69
74561;BME280;62979;55.720;37.606;2023-09-19T04:38:38;100183.81;;;15.40;60.25
74561;BME280;62979;55.720;37.606;2023-09-19T04:41:05;100183.53;;;15.48;60.27
74561;BME280;62979;55.720;37.606;2023-09-19T04:43:32;100187.75;;;15.54;59.50
74561;BME280;62979;55.720;37.606;2023-09-19T04:45:59;100184.03;;;15.58;59.56
74561;BME280;62979;55.720;37.606;2023-09-19T04:48:26;100184.03;;;15.58;59.26
74561;BME280;62979;55.720;37.606;2023-09-19T04:50:54;100185.78;;;15.59;59.24
74561;BME280;62979;55.720;37.606;2023-09-19T04:53:22;100194.38;;;15.64;59.33
74561;BME280;62979;55.720;37.606;2023-09-19T04:55:50;100198.69;;;15.67;59.29
74561;BME280;62979;55.720;37.606;2023-09-19T04:58:20;100196.09;;;15.65;59.45
74561;BME280;62979;55.720;37.606;2023-09-19T05:00:48;100192.47;;;15.68;59.84
74561;BME280;62979;55.720;37.606;2023-09-19T05:03:16;100195.34;;;15.61;59.25
74561;BME280;62979;55.720;37.606;2023-09-19T05:05:46;100191.44;;;15.48;59.58
74561;BME280;62979;55.720;37.606;2023-09-19T05:08:13;100191.28;;;15.53;60.06
74561;BME280;62979;55.720;37.606;2023-09-19T05:10:42;100186.28;;;15.45;59.99
74561;BME280;62979;55.720;37.606;2023-09-19T05:13:09;100186.41;;;15.42;60.48
74561;BME280;62979;55.720;37.606;2023-09-19T05:15:37;100182.34;;;15.57;60.13
74561;BME280;62979;55.720;37.606;2023-09-19T05:18:04;100170.09;;;15.56;59.40
74561;BME280;62979;55.720;37.606;2023-09-19T05:20:32;100169.56;;;15.46;59.76
74561;BME280;62979;55.720;37.606;2023-09-19T05:23:02;100175.91;;;15.40;60.29
74561;BME280;62979;55.720;37.606;2023-09-19T05:25:33;100173.59;;;15.31;60.19
74561;BME280;62979;55.720;37.606;2023-09-19T05:28:06;100175.34;;;15.32;60.17
74561;BME280;62979;55.720;37.606;2023-09-19T05:30:34;100166.91;;;15.23;60.34
74561;BME280;62979;55.720;37.606;2023-09-19T05:33:04;100154.38;;;15.04;60.57
74561;BME280;62979;55.720;37.606;2023-09-19T05:35:31;100168.44;;;15.05;60.90
74561;BME280;62979;55.720;37.606;2023-09-19T05:37:58;100159.91;;;14.96;61.00
74561;BME280;62979;55.720;37.606;2023-09-19T05:40:27;100159.50;;;15.09;60.82
74561;BME280;62979;55.720;37.606;2023-09-19T05:42:54;100164.75;;;15.09;61.08
74561;BME280;62979;55.720;37.606;2023-09-19T05:45:22;100170.47;;;14.96;61.14
74561;BME280;62979;55.720;37.606;2023-09-19T05:47:49;100166.38;;;14.88;61.35
74561;BME280;62979;55.720;37.606;2023-09-19T05:50:16;100162.72;;;14.92;61.41
74561;BME280;62979;55.720;37.606;2023-09-19T05:52:51;100156.59;;;14.91;61.41
74561;BME280;62979;55.720;37.606;2023-09-19T05:55:19;100150.59;;;14.88;61.50
74561;BME280;62979;55.720;37.606;2023-09-19T05:57:49;100158.50;;;14.88;61.71
74561;BME280;62979;55.720;37.606;2023-09-19T06:00:18;100151.75;;;15.04;61.22
74561;BME280;62979;55.720;37.606;2023-09-19T06:02:50;100149.47;;;15.18;61.36
74561;BME280;62979;55.720;37.606;2023-09-19T06:05:19;100158.44;;;15.38;60.59
74561;BME280;62979;55.720;37.606;2023-09-19T06:07:46;100163.41;;;15.46;60.31
74561;BME280;62979;55.720;37.606;2023-09-19T06:10:13;100165.97;;;15.49;60.05
74561;BME280;62979;55.720;37.606;2023-09-19T06:12:41;100168.34;;;15.55;60.21
74561;BME280;62979;55.720;37.606;2023-09-19T06:15:10;100166.09;;;15.68;59.99
74561;BME280;62979;55.720;37.606;2023-09-19T06:17:41;100165.97;;;15.72;59.46
74561;BME280;62979;55.720;37.606;2023-09-19T06:20:10;100164.13;;;15.74;59.54
74561;BME280;62979;55.720;37.606;2023-09-19T06:22:40;100165.13;;;15.72;59.49
74561;BME280;62979;55.720;37.606;2023-09-19T06:25:08;100154.56;;;15.72;59.54
74561;BME280;62979;55.720;37.606;2023-09-19T06:27:37;100160.34;;;15.81;59.54
74561;BME280;62979;55.720;37.606;2023-09-19T06:30:07;100160.13;;;15.88;59.21
74561;BME280;62979;55.720;37.606;2023-09-19T06:32:36;100151.16;;;15.92;59.23
74561;BME280;62979;55.720;37.606;2023-09-19T06:35:04;100155.59;;;16.13;59.96
74561;BME280;62979;55.720;37.606;2023-09-19T06:37:35;100149.31;;;16.38;58.87
74561;BME280;62979;55.720;37.606;2023-09-19T06:40:06;100150.53;;;16.51;57.82
74561;BME280;62979;55.720;37.606;2023-09-19T06:42:39;100158.00;;;16.62;57.75
74561;BME280;62979;55.720;37.606;2023-09-19T06:45:08;100149.50;;;16.76;57.96
74561;BME280;62979;55.720;37.606;2023-09-19T06:47:37;100141.66;;;16.95;56.87
74561;BME280;62979;55.720;37.606;2023-09-19T06:50:04;100147.94;;;17.13;56.40
74561;BME280;62979;55.720;37.606;2023-09-19T06:52:36;100164.16;;;17.24;56.19
74561;BME280;62979;55.720;37.606;2023-09-19T06:55:03;100166.38;;;17.33;55.99
74561;BME280;62979;55.720;37.606;2023-09-19T06:57:31;100150.72;;;17.28;55.81
74561;BME280;62979;55.720;37.606;2023-09-19T06:59:58;100133.91;;;17.10;56.07
74561;BME280;62979;55.720;37.606;2023-09-19T07:02:27;100165.25;;;17.20;56.09
74561;BME280;62979;55.720;37.606;2023-09-19T07:04:53;100153.81;;;17.19;56.18
74561;BME280;62979;55.720;37.606;2023-09-19T07:07:20;100162.94;;;17.31;56.23
74561;BME280;62979;55.720;37.606;2023-09-19T07:09:48;100150.13;;;17.42;55.88
74561;BME280;62979;55.720;37.606;2023-09-19T07:12:16;100148.28;;;17.44;55.73
74561;BME280;62979;55.720;37.606;2023-09-19T07:14:43;100147.13;;;17.50;55.42
74561;BME280;62979;55.720;37.606;2023-09-19T07:17:11;100154.44;;;17.64;55.36
74561;BME280;62979;55.720;37.606;2023-09-19T07:19:44;100146.78;;;17.76;55.01
74561;BME280;62979;55.720;37.606;2023-09-19T07:22:11;100150.34;;;17.94;54.39
74561;BME280;62979;55.720;37.606;2023-09-19T07:24:38;100150.13;;;17.99;54.51
74561;BME280;62979;55.720;37.606;2023-09-19T07:27:06;100143.72;;;18.05;54.51
74561;BME280;62979;55.720;37.606;2023-09-19T07:29:39;100144.25;;;18.11;54.36
74561;BME280;62979;55.720;37.606;2023-09-19T07:32:05;100137.84;;;18.17;54.05
74561;BME280;62979;55.720;37.606;2023-09-19T07:34:35;100136.66;;;18.23;54.28
74561;BME280;62979;55.720;37.606;2023-09-19T07:37:04;100149.97;;;18.38;53.74
74561;BME280;62979;55.720;37.606;2023-09-19T07:39:31;100147.13;;;18.43;53.78
74561;BME280;62979;55.720;37.606;2023-09-19T07:41:59;100156.94;;;18.41;53.66
74561;BME280;62979;55.720;37.606;2023-09-19T07:44:27;100143.94;;;18.36;53.97
74561;BME280;62979;55.720;37.606;2023-09-19T07:46:54;100144.22;;;18.30;54.18
74561;BME280;62979;55.720;37.606;2023-09-19T07:49:22;100125.22;;;18.22;54.39
74561;BME280;62979;55.720;37.606;2023-09-19T07:51:49;100125.28;;;18.21;54.56
74561;BME280;62979;55.720;37.606;2023-09-19T07:54:18;100117.44;;;18.36;54.40
74561;BME280;62979;55.720;37.606;2023-09-19T07:56:45;100113.31;;;18.48;53.85
74561;BME280;62979;55.720;37.606;2023-09-19T07:59:11;100119.94;;;18.57;53.66
74561;BME280;62979;55.720;37.606;2023-09-19T08:01:40;100108.28;;;18.61;53.74
74561;BME280;62979;55.720;37.606;2023-09-19T08:04:09;100102.34;;;18.73;53.40
74561;BME280;62979;55.720;37.606;2023-09-19T08:06:36;100113.19;;;18.86;53.19
74561;BME280;62979;55.720;37.606;2023-09-19T08:09:04;100112.72;;;18.95;53.07
74561;BME280;62979;55.720;37.606;2023-09-19T08:11:33;100113.09;;;19.05;52.98
74561;BME280;62979;55.720;37.606;2023-09-19T08:13:59;100123.66;;;19.22;52.72
74561;BME280;62979;55.720;37.606;2023-09-19T08:16:27;100096.63;;;19.32;52.43
74561;BME280;62979;55.720;37.606;2023-09-19T08:18:55;100101.16;;;19.45;51.68
74561;BME280;62979;55.720;37.606;2023-09-19T08:21:22;100103.41;;;19.37;52.30
74561;BME280;62979;55.720;37.606;2023-09-19T08:23:49;100107.66;;;19.40;52.04
74561;BME280;62979;55.720;37.606;2023-09-19T08:26:16;100101.03;;;19.49;51.96
74561;BME280;62979;55.720;37.606;2023-09-19T08:28:43;100106.69;;;19.58;51.58
74561;BME280;62979;55.720;37.606;2023-09-19T08:31:10;100107.09;;;19.66;51.89
74561;BME280;62979;55.720;37.606;2023-09-19T08:33:37;100099.75;;;19.56;51.68
74561;BME280;62979;55.720;37.606;2023-09-19T08:36:06;100087.47;;;19.37;52.33
74561;BME280;62979;55.720;37.606;2023-09-19T08:38:35;100089.59;;;19.31;52.25
74561;BME280;62979;55.720;37.606;2023-09-19T08:41:05;100084.06;;;19.35;52.63
74561;BME280;62979;55.720;37.606;2023-09-19T08:43:34;100086.03;;;19.32;52.44
74561;BME280;62979;55.720;37.606;2023-09-19T08:46:06;100085.84;;;19.35;52.31
74561;BME280;62979;55.720;37.606;2023-09-19T08:48:39;100085.84;;;19.35;52.79
74561;BME280;62979;55.720;37.606;2023-09-19T08:51:18;100075.56;;;19.29;52.83
74561;BME280;62979;55.720;37.606;2023-09-19T08:54:00;100070.25;;;19.29;53.08
74561;BME280;62979;55.720;37.606;2023-09-19T08:56:32;100058.63;;;19.31;53.17
74561;BME280;62979;55.720;37.606;2023-09-19T08:59:02;100071.28;;;19.26;53.22
74561;BME280;62979;55.720;37.606;2023-09-19T09:01:31;100068.28;;;19.16;53.39
74561;BME280;62979;55.720;37.606;2023-09-19T09:03:59;100056.66;;;19.19;53.95
74561;BME280;62979;55.720;37.606;2023-09-19T09:06:29;100058.91;;;19.27;53.50
74561;BME280;62979;55.720;37.606;2023-09-19T09:08:58;100067.88;;;19.24;53.62
74561;BME280;62979;55.720;37.606;2023-09-19T09:11:25;100065.47;;;19.19;54.08
74561;BME280;62979;55.720;37.606;2023-09-19T09:13:53;100069.41;;;19.12;54.00
74561;BME280;62979;55.720;37.606;2023-09-19T09:16:20;100086.69;;;19.19;54.42
74561;BME280;62979;55.720;37.606;2023-09-19T09:18:51;100076.44;;;19.29;54.18
74561;BME280;62979;55.720;37.606;2023-09-19T09:21:19;100074.81;;;19.42;54.08
74561;BME280;62979;55.720;37.606;2023-09-19T09:23:48;100071.50;;;19.55;53.52
74561;BME280;62979;55.720;37.606;2023-09-19T09:26:17;100073.22;;;19.72;53.49
74561;BME280;62979;55.720;37.606;2023-09-19T09:29:02;100075.25;;;19.82;52.96
74561;BME280;62979;55.720;37.606;2023-09-19T09:31:28;100066.19;;;19.86;52.42
74561;BME280;62979;55.720;37.606;2023-09-19T09:33:56;100066.00;;;19.89;52.54
74561;BME280;62979;55.720;37.606;2023-09-19T09:36:37;100055.72;;;19.99;52.13
74561;BME280;62979;55.720;37.606;2023-09-19T09:39:08;100049.38;;;20.02;52.06
74561;BME280;62979;55.720;37.606;2023-09-19T09:41:43;100058.63;;;20.10;52.26
74561;BME280;62979;55.720;37.606;2023-09-19T09:44:14;100044.22;;;20.15;51.89
74561;BME280;62979;55.720;37.606;2023-09-19T09:46:43;100048.41;;;20.19;52.02
74561;BME280;62979;55.720;37.606;2023-09-19T09:49:31;100058.59;;;20.26;51.68
74561;BME280;62979;55.720;37.606;2023-09-19T09:52:00;100041.78;;;20.26;51.82
74561;BME280;62979;55.720;37.606;2023-09-19T09:54:33;100059.91;;;20.34;51.94
74561;BME280;62979;55.720;37.606;2023-09-19T09:57:03;100054.19;;;20.41;51.26
74561;BME280;62979;55.720;37.606;2023-09-19T09:59:47;100032.88;;;20.27;52.33
74561;BME280;62979;55.720;37.606;2023-09-19T10:02:24;100052.19;;;20.45;51.79
74561;BME280;62979;55.720;37.606;2023-09-19T10:04:55;100051.47;;;20.57;51.40
74561;BME280;62979;55.720;37.606;2023-09-19T10:07:35;100046.53;;;20.65;51.70
74561;BME280;62979;55.720;37.606;2023-09-19T10:10:06;100046.28;;;20.84;51.26
74561;BME280;62979;55.720;37.606;2023-09-19T10:12:43;100037.66;;;21.09;50.83
74561;BME280;62979;55.720;37.606;2023-09-19T10:15:14;100035.97;;;21.50;49.75
74561;BME280;62979;55.720;37.606;2023-09-19T10:17:45;100028.84;;;21.77;48.97
74561;BME280;62979;55.720;37.606;2023-09-19T10:20:14;100016.00;;;21.84;48.43
74561;BME280;62979;55.720;37.606;2023-09-19T10:22:59;100017.88;;;22.09;47.80
74561;BME280;62979;55.720;37.606;2023-09-19T10:25:29;100013.16;;;22.27;47.48
74561;BME280;62979;55.720;37.606;2023-09-19T10:27:57;100012.63;;;22.35;47.02
74561;BME280;62979;55.720;37.606;2023-09-19T10:30:29;100005.19;;;22.40;47.01
74561;BME280;62979;55.720;37.606;2023-09-19T10:33:01;100005.19;;;22.53;46.75
74561;BME280;62979;55.720;37.606;2023-09-19T10:35:29;100003.66;;;22.87;46.20
74561;BME280;62979;55.720;37.606;2023-09-19T10:38:00;100005.50;;;23.49;44.80
74561;BME280;62979;55.720;37.606;2023-09-19T10:40:30;100005.53;;;23.73;44.12
74561;BME280;62979;55.720;37.606;2023-09-19T10:43:02;100004.22;;;24.14;43.43
74561;BME280;62979;55.720;37.606;2023-09-19T10:45:32;100009.47;;;24.62;42.34
74561;BME280;62979;55.720;37.606;2023-09-19T10:48:00;100000.94;;;25.13;41.45
74561;BME280;62979;55.720;37.606;2023-09-19T10:50:33;99996.56;;;25.78;39.91
74561;BME280;62979;55.720;37.606;2023-09-19T10:53:04;99994.16;;;26.29;39.08
74561;BME280;62979;55.720;37.606;2023-09-19T10:55:35;100002.59;;;26.66;38.04
74561;BME280;62979;55.720;37.606;2023-09-19T10:58:03;99999.91;;;26.97;37.99
74561;BME280;62979;55.720;37.606;2023-09-19T11:00:52;99987.38;;;27.57;36.27
74561;BME280;62979;55.720;37.606;2023-09-19T11:03:21;99982.31;;;27.93;36.10
74561;BME280;62979;55.720;37.606;2023-09-19T11:06:03;99982.84;;;28.26;35.21
74561;BME280;62979;55.720;37.606;2023-09-19T11:08:54;99996.25;;;28.55;34.79
74561;BME280;62979;55.720;37.606;2023-09-19T11:11:47;99984.16;;;28.78;34.39
74561;BME280;62979;55.720;37.606;2023-09-19T11:14:43;99989.19;;;28.91;34.11
74561;BME280;62979;55.720;37.606;2023-09-19T11:17:40;99984.47;;;29.31;33.73
74561;BME280;62979;55.720;37.606;2023-09-19T11:20:20;99984.28;;;29.60;32.84
74561;BME280;62979;55.720;37.606;2023-09-19T11:23:19;99980.47;;;29.80;32.79
74561;BME280;62979;55.720;37.606;2023-09-19T11:25:55;99971.50;;;30.34;32.00
74561;BME280;62979;55.720;37.606;2023-09-19T11:28:33;99982.34;;;30.76;31.12
74561;BME280;62979;55.720;37.606;2023-09-19T11:40:28;99961.44;;;31.12;30.75
74561;BME280;62979;55.720;37.606;2023-09-19T11:42:56;99969.91;;;31.18;30.67
74561;BME280;62979;55.720;37.606;2023-09-19T11:48:32;99967.97;;;31.52;29.88
74561;BME280;62979;55.720;37.606;2023-09-19T11:51:11;99952.50;;;31.95;29.43
74561;BME280;62979;55.720;37.606;2023-09-19T11:53:45;99948.28;;;32.09;29.18
74561;BME280;62979;55.720;37.606;2023-09-19T11:56:14;99952.13;;;32.31;29.05
74561;BME280;62979;55.720;37.606;2023-09-19T11:58:43;99947.19;;;32.35;28.73
74561;BME280;62979;55.720;37.606;2023-09-19T12:01:15;99949.50;;;32.62;28.50
74561;BME280;62979;55.720;37.606;2023-09-19T12:03:52;99944.66;;;32.41;28.88
74561;BME280;62979;55.720;37.606;2023-09-19T12:06:23;99933.47;;;32.45;28.78
74561;BME280;62979;55.720;37.606;2023-09-19T12:08:51;99927.06;;;32.54;28.48
74561;BME280;62979;55.720;37.606;2023-09-19T12:11:19;99931.25;;;32.48;28.68
74561;BME280;62979;55.720;37.606;2023-09-19T12:13:49;99922.63;;;32.61;28.50
74561;BME280;62979;55.720;37.606;2023-09-19T12:16:20;99925.38;;;32.92;28.20
74561;BME280;62979;55.720;37.606;2023-09-19T12:18:49;99918.66;;;33.19;28.14
74561;BME280;62979;55.720;37.606;2023-09-19T12:21:27;99904.56;;;33.47;27.45
74561;BME280;62979;55.720;37.606;2023-09-19T12:24:07;99911.63;;;33.79;26.97
74561;BME280;62979;55.720;37.606;2023-09-19T12:26:42;99906.69;;;33.83;27.15
74561;BME280;62979;55.720;37.606;2023-09-19T12:29:14;99901.03;;;34.07;26.93
74561;BME280;62979;55.720;37.606;2023-09-19T12:31:49;99899.75;;;34.33;26.69
74561;BME280;62979;55.720;37.606;2023-09-19T12:34:23;99894.78;;;34.51;26.42
74561;BME280;62979;55.720;37.606;2023-09-19T12:37:20;99893.06;;;34.95;25.57
74561;BME280;62979;55.720;37.606;2023-09-19T12:39:49;99888.56;;;35.02;25.83
74561;BME280;62979;55.720;37.606;2023-09-19T12:42:20;99896.50;;;35.04;25.48
74561;BME280;62979;55.720;37.606;2023-09-19T12:44:49;99884.72;;;35.33;25.20
74561;BME280;62979;55.720;37.606;2023-09-19T12:47:22;99878.38;;;35.26;25.33
74561;BME280;62979;55.720;37.606;2023-09-19T12:50:07;99864.28;;;35.01;25.41
74561;BME280;62979;55.720;37.606;2023-09-19T12:52:41;99874.88;;;35.10;25.64
74561;BME280;62979;55.720;37.606;2023-09-19T12:55:20;99879.91;;;35.13;25.60
74561;BME280;62979;55.720;37.606;2023-09-19T12:58:12;99879.59;;;35.23;25.31
74561;BME280;62979;55.720;37.606;2023-09-19T13:00:42;99873.25;;;35.59;25.10
74561;BME280;62979;55.720;37.606;2023-09-19T13:03:16;99883.03;;;36.03;24.27
74561;BME280;62979;55.720;37.606;2023-09-19T13:05:51;99879.31;;;36.39;24.14
74561;BME280;62979;55.720;37.606;2023-09-19T13:08:24;99871.91;;;35.98;24.36
74561;BME280;62979;55.720;37.606;2023-09-19T13:11:03;99863.03;;;35.61;25.04